createdAt,value
2018-09-02T00:00:16.177Z,98.50
2018-09-02T00:02:44.329Z,98.50
2018-09-02T00:05:19.239Z,98.50
2018-09-02T00:07:47.418Z,98.50
2018-09-02T00:10:15.624Z,98.50
2018-09-02T00:12:43.826Z,98.50
2018-09-02T00:15:12.030Z,98.50
2018-09-02T00:17:40.250Z,98.50
2018-09-02T00:20:15.044Z,98.50
2018-09-02T00:22:43.249Z,98.50
2018-09-02T00:25:11.448Z,98.50
2018-09-02T00:27:39.660Z,98.50
2018-09-02T00:30:08.272Z,98.50
2018-09-02T00:32:36.668Z,98.50
2018-09-02T00:35:04.959Z,98.50
2018-09-02T00:37:33.190Z,98.50
2018-09-02T00:40:01.360Z,98.50
2018-09-02T00:42:29.565Z,98.50
2018-09-02T00:44:57.738Z,98.50
2018-09-02T00:47:25.924Z,98.50
2018-09-02T00:49:54.101Z,98.50
2018-09-02T00:52:22.298Z,98.50
2018-09-02T00:54:50.453Z,98.50
2018-09-02T00:57:18.653Z,98.50
2018-09-02T00:59:46.876Z,98.50
2018-09-02T01:02:15.086Z,98.50
2018-09-02T01:04:43.231Z,98.50
2018-09-02T01:07:11.521Z,98.50
2018-09-02T01:09:39.696Z,98.50
2018-09-02T01:12:07.930Z,98.50
2018-09-02T01:14:36.089Z,98.50
2018-09-02T01:17:04.442Z,98.50
2018-09-02T01:19:32.621Z,98.50
2018-09-02T01:22:00.830Z,98.50
2018-09-02T01:24:29.008Z,98.50
2018-09-02T01:26:57.205Z,98.50
2018-09-02T01:29:25.367Z,98.50
2018-09-02T01:31:53.561Z,98.50
2018-09-02T01:34:21.744Z,98.50
2018-09-02T01:36:49.977Z,98.50
2018-09-02T01:39:18.176Z,98.50
2018-09-02T01:41:46.424Z,98.50
2018-09-02T01:44:14.636Z,98.50
2018-09-02T01:46:42.825Z,98.50
2018-09-02T01:49:11.013Z,98.50
2018-09-02T01:51:39.180Z,98.50
2018-09-02T01:54:07.381Z,98.50
2018-09-02T01:56:35.563Z,98.50
2018-09-02T01:59:03.805Z,98.50
2018-09-02T02:01:31.996Z,98.50
2018-09-02T02:04:00.223Z,98.50
2018-09-02T02:06:28.432Z,98.50
2018-09-02T02:08:56.941Z,98.50
2018-09-02T02:11:25.121Z,98.50
2018-09-02T02:13:53.329Z,98.50
2018-09-02T02:16:21.498Z,98.50
2018-09-02T02:18:49.761Z,98.50
2018-09-02T02:21:17.926Z,98.50
2018-09-02T02:23:46.235Z,98.50
2018-09-02T02:26:14.415Z,98.50
2018-09-02T02:28:42.613Z,98.50
2018-09-02T02:31:10.771Z,98.50
2018-09-02T02:33:38.984Z,98.50
2018-09-02T02:36:07.154Z,98.50
2018-09-02T02:38:35.357Z,98.50
2018-09-02T02:41:03.566Z,98.50
2018-09-02T02:43:31.769Z,98.50
2018-09-02T02:45:59.925Z,98.50
2018-09-02T02:48:28.245Z,98.50
2018-09-02T02:50:56.413Z,98.50
2018-09-02T02:53:24.624Z,98.50
2018-09-02T02:55:52.793Z,98.50
2018-09-02T02:58:20.995Z,98.50
2018-09-02T03:00:49.225Z,98.50
2018-09-02T03:03:17.457Z,98.50
2018-09-02T03:05:45.651Z,98.50
2018-09-02T03:08:13.824Z,98.50
2018-09-02T03:10:42.036Z,98.50
2018-09-02T03:13:10.252Z,98.50
2018-09-02T03:15:38.462Z,98.50
2018-09-02T03:18:06.624Z,98.50
2018-09-02T03:20:34.820Z,98.50
2018-09-02T03:23:03.078Z,98.50
2018-09-02T03:25:31.273Z,98.50
2018-09-02T03:27:59.430Z,98.50
2018-09-02T03:30:27.616Z,98.50
2018-09-02T03:32:55.768Z,98.50
2018-09-02T03:35:23.962Z,98.50
2018-09-02T03:37:52.121Z,98.50
2018-09-02T03:40:20.365Z,98.50
2018-09-02T03:42:48.530Z,98.50
2018-09-02T03:45:16.730Z,98.50
2018-09-02T03:47:44.905Z,98.50
2018-09-02T03:50:13.119Z,98.50
2018-09-02T03:52:41.410Z,98.50
2018-09-02T03:55:09.695Z,98.50
2018-09-02T03:57:37.874Z,98.50
2018-09-02T04:00:06.821Z,98.50
2018-09-02T04:02:35.054Z,98.50
2018-09-02T04:05:03.365Z,98.50
2018-09-02T04:07:31.521Z,98.50
2018-09-02T04:09:59.734Z,98.50
2018-09-02T04:12:27.906Z,98.50
2018-09-02T04:14:56.129Z,98.50
2018-09-02T04:17:24.286Z,98.50
2018-09-02T04:19:52.481Z,98.50
2018-09-02T04:22:20.727Z,98.50
2018-09-02T04:24:48.887Z,98.50
2018-09-02T04:27:17.090Z,98.50
2018-09-02T04:29:45.261Z,98.50
2018-09-02T04:32:13.471Z,98.50
2018-09-02T04:34:41.649Z,98.50
2018-09-02T04:37:09.940Z,98.50
2018-09-02T04:39:38.100Z,98.50
2018-09-02T04:42:06.493Z,98.50
2018-09-02T04:44:34.656Z,98.50
2018-09-02T04:47:02.873Z,98.50
2018-09-02T04:49:31.037Z,98.50
2018-09-02T04:51:59.238Z,98.50
2018-09-02T04:54:27.443Z,98.50
2018-09-02T04:56:55.650Z,98.50
2018-09-02T04:59:23.814Z,98.50
2018-09-02T05:01:52.187Z,98.50
2018-09-02T05:04:20.441Z,98.50
2018-09-02T05:06:48.727Z,98.50
2018-09-02T05:09:16.937Z,98.50
2018-09-02T05:11:45.136Z,98.50
2018-09-02T05:14:13.373Z,98.50
2018-09-02T05:16:41.557Z,98.50
2018-09-02T05:19:09.729Z,98.50
2018-09-02T05:21:37.942Z,98.50
2018-09-02T05:24:06.149Z,98.50
2018-09-02T05:26:34.473Z,98.50
2018-09-02T05:29:02.692Z,98.50
2018-09-02T05:31:30.924Z,98.50
2018-09-02T05:33:59.213Z,98.50
2018-09-02T05:36:27.430Z,98.50
2018-09-02T05:38:56.019Z,98.50
2018-09-02T05:41:24.218Z,98.50
2018-09-02T05:43:52.481Z,98.50
2018-09-02T05:46:20.672Z,98.50
2018-09-02T05:48:48.874Z,98.50
2018-09-02T05:51:17.049Z,98.50
2018-09-02T05:53:45.285Z,98.50
2018-09-02T05:56:13.498Z,98.50
2018-09-02T05:58:41.805Z,98.50
2018-09-02T06:01:09.994Z,98.50
2018-09-02T06:03:38.185Z,98.50
2018-09-02T06:06:06.456Z,98.50
2018-09-02T06:08:34.644Z,98.50
2018-09-02T06:11:02.877Z,98.50
2018-09-02T06:13:31.081Z,98.50
2018-09-02T06:15:59.244Z,98.50
2018-09-02T06:18:27.449Z,98.50
2018-09-02T06:20:55.601Z,98.50
2018-09-02T06:23:23.814Z,98.50
2018-09-02T06:25:52.009Z,98.50
2018-09-02T06:28:20.313Z,98.50
2018-09-02T06:30:48.482Z,98.50
2018-09-02T06:33:16.697Z,98.50
2018-09-02T06:35:44.935Z,98.50
2018-09-02T06:38:13.164Z,98.50
2018-09-02T06:40:41.424Z,98.50
2018-09-02T06:43:09.612Z,98.50
2018-09-02T06:45:37.948Z,98.50
2018-09-02T06:48:06.433Z,98.50
2018-09-02T06:50:34.590Z,98.50
2018-09-02T06:53:02.776Z,98.50
2018-09-02T06:55:30.974Z,98.50
2018-09-02T06:57:59.488Z,98.50
2018-09-02T07:00:28.085Z,98.50
2018-09-02T07:02:56.394Z,98.50
2018-09-02T07:05:24.825Z,98.50
2018-09-02T07:07:53.042Z,98.50
2018-09-02T07:10:21.305Z,98.50
2018-09-02T07:12:49.546Z,98.50
2018-09-02T07:15:17.806Z,98.50
2018-09-02T07:17:46.085Z,98.50
2018-09-02T07:20:14.335Z,98.50
2018-09-02T07:22:42.489Z,98.50
2018-09-02T07:25:10.694Z,98.50
2018-09-02T07:27:38.897Z,98.50
2018-09-02T07:30:07.117Z,98.50
2018-09-02T07:32:35.469Z,98.50
2018-09-02T07:35:03.806Z,98.50
2018-09-02T07:37:32.001Z,98.50
2018-09-02T07:40:00.213Z,98.50
2018-09-02T07:42:28.385Z,98.50
2018-09-02T07:44:56.620Z,98.50
2018-09-02T07:47:25.125Z,98.50
2018-09-02T07:49:53.327Z,98.50
2018-09-02T07:52:21.641Z,98.50
2018-09-02T07:54:49.842Z,98.50
2018-09-02T07:57:18.009Z,98.50
2018-09-02T07:59:46.205Z,98.50
2018-09-02T08:02:14.372Z,98.50
2018-09-02T08:04:42.576Z,98.50
2018-09-02T08:07:10.767Z,98.50
2018-09-02T08:09:38.980Z,98.50
2018-09-02T08:12:07.172Z,98.50
2018-09-02T08:14:35.405Z,98.50
2018-09-02T08:17:03.620Z,98.50
2018-09-02T08:19:31.809Z,98.30
2018-09-02T08:22:00.045Z,98.50
2018-09-02T08:24:28.249Z,98.50
2018-09-02T08:26:56.422Z,98.50
2018-09-02T08:29:24.600Z,98.50
2018-09-02T08:31:52.905Z,97.90
2018-09-02T08:34:21.117Z,98.50
2018-09-02T08:36:49.333Z,98.50
2018-09-02T08:39:17.578Z,98.50
2018-09-02T08:41:45.729Z,98.50
2018-09-02T08:44:13.938Z,98.50
2018-09-02T08:46:42.133Z,98.50
2018-09-02T08:49:10.297Z,98.50
2018-09-02T08:51:38.519Z,98.50
2018-09-02T08:54:06.718Z,98.20
2018-09-02T08:56:34.933Z,98.50
2018-09-02T08:59:03.187Z,96.90
2018-09-02T09:01:31.463Z,97.50
2018-09-02T09:03:59.611Z,97.00
2018-09-02T09:06:28.044Z,96.60
2018-09-02T09:08:56.507Z,95.90
2018-09-02T09:11:25.092Z,96.10
2018-09-02T09:13:53.566Z,95.30
2018-09-02T09:16:21.929Z,95.90
2018-09-02T09:18:50.101Z,94.90
2018-09-02T09:21:18.325Z,95.10
2018-09-02T09:23:46.528Z,94.90
2018-09-02T09:26:14.742Z,95.40
2018-09-02T09:28:42.958Z,94.30
2018-09-02T09:31:11.271Z,93.70
2018-09-02T09:33:39.598Z,93.50
2018-09-02T09:36:07.845Z,94.40
2018-09-02T09:38:36.036Z,95.20
2018-09-02T09:41:04.280Z,94.40
2018-09-02T09:43:32.698Z,93.20
2018-09-02T09:46:00.946Z,92.70
2018-09-02T09:48:29.117Z,92.30
2018-09-02T09:50:57.314Z,91.40
2018-09-02T09:53:25.515Z,91.70
2018-09-02T09:55:53.732Z,91.10
2018-09-02T09:58:21.952Z,89.50
2018-09-02T10:00:51.662Z,90.60
2018-09-02T10:03:20.803Z,91.40
2018-09-02T10:05:49.065Z,91.10
2018-09-02T10:08:17.316Z,91.70
2018-09-02T10:10:45.485Z,91.90
2018-09-02T10:13:13.692Z,92.70
2018-09-02T10:15:41.926Z,93.80
2018-09-02T10:18:10.291Z,93.30
2018-09-02T10:20:38.362Z,93.00
2018-09-02T10:23:06.607Z,93.30
2018-09-02T10:25:34.761Z,93.80
2018-09-02T10:28:03.008Z,94.30
2018-09-02T10:30:31.253Z,94.00
2018-09-02T10:32:59.570Z,93.40
2018-09-02T10:35:27.758Z,94.60
2018-09-02T10:37:55.957Z,95.90
2018-09-02T10:40:24.317Z,95.90
2018-09-02T10:42:52.927Z,95.80
2018-09-02T10:45:21.189Z,95.80
2018-09-02T10:47:49.613Z,96.40
2018-09-02T10:50:17.953Z,96.10
2018-09-02T10:52:46.188Z,96.90
2018-09-02T10:55:14.506Z,96.40
2018-09-02T10:57:43.605Z,96.50
2018-09-02T11:00:12.049Z,97.10
2018-09-02T11:02:41.304Z,96.50
2018-09-02T11:05:09.888Z,96.80
2018-09-02T11:07:38.148Z,96.80
2018-09-02T11:10:06.687Z,97.20
2018-09-02T11:12:34.908Z,97.70
2018-09-02T11:15:03.170Z,97.60
2018-09-02T11:17:31.461Z,97.30
2018-09-02T11:19:59.725Z,97.60
2018-09-02T11:22:27.927Z,97.30
2018-09-02T11:24:56.114Z,97.00
2018-09-02T11:27:24.281Z,96.90
2018-09-02T11:29:52.505Z,96.00
2018-09-02T11:32:20.673Z,96.40
2018-09-02T11:34:48.893Z,94.90
2018-09-02T11:37:17.077Z,94.40
2018-09-02T11:39:45.441Z,93.40
2018-09-02T11:42:13.665Z,92.30
2018-09-02T11:44:41.885Z,91.60
2018-09-02T11:47:10.077Z,91.40
2018-09-02T11:49:38.280Z,90.10
2018-09-02T11:52:06.434Z,90.90
2018-09-02T11:54:34.632Z,89.90
2018-09-02T11:57:02.849Z,90.00
2018-09-02T11:59:31.049Z,91.30
2018-09-02T12:01:59.277Z,92.00
2018-09-02T12:04:27.462Z,93.20
2018-09-02T12:06:55.689Z,94.20
2018-09-02T12:09:23.892Z,91.80
2018-09-02T12:11:52.125Z,92.30
2018-09-02T12:14:20.343Z,92.30
2018-09-02T12:16:48.617Z,91.40
2018-09-02T12:19:16.808Z,91.60
2018-09-02T12:21:45.122Z,90.00
2018-09-02T12:24:13.334Z,90.90
2018-09-02T12:26:41.495Z,91.50
2018-09-02T12:29:09.712Z,89.40
2018-09-02T12:31:37.888Z,89.60
2018-09-02T12:34:06.116Z,89.80
2018-09-02T12:36:34.437Z,89.80
2018-09-02T12:39:03.009Z,90.50
2018-09-02T12:41:31.209Z,91.10
2018-09-02T12:43:59.386Z,91.50
2018-09-02T12:46:27.582Z,91.00
2018-09-02T12:48:55.753Z,90.40
2018-09-02T12:51:24.061Z,90.40
2018-09-02T12:53:52.223Z,90.50
2018-09-02T12:56:20.428Z,90.60
2018-09-02T12:58:48.601Z,90.60
2018-09-02T13:01:16.850Z,90.90
2018-09-02T13:03:45.046Z,90.40
2018-09-02T13:06:13.266Z,89.50
2018-09-02T13:08:41.498Z,89.20
2018-09-02T13:11:09.724Z,86.90
2018-09-02T13:13:37.917Z,87.20
2018-09-02T13:16:06.134Z,87.00
2018-09-02T13:18:34.335Z,86.90
2018-09-02T13:21:02.534Z,86.90
2018-09-02T13:23:30.738Z,87.30
2018-09-02T13:25:58.954Z,87.30
2018-09-02T13:28:27.137Z,88.20
2018-09-02T13:30:58.349Z,88.30
2018-09-02T13:33:26.522Z,86.00
2018-09-02T13:35:54.797Z,87.20
2018-09-02T13:38:22.985Z,87.70
2018-09-02T13:40:51.193Z,87.70
2018-09-02T13:43:19.382Z,87.80
2018-09-02T13:45:47.620Z,87.40
2018-09-02T13:48:15.809Z,83.90
2018-09-02T13:50:44.023Z,83.40
2018-09-02T13:53:12.196Z,84.40
2018-09-02T13:55:40.397Z,86.20
2018-09-02T13:58:08.604Z,86.70
2018-09-02T14:00:36.858Z,86.60
2018-09-02T14:03:05.186Z,88.10
2018-09-02T14:05:33.364Z,87.80
2018-09-02T14:08:01.639Z,88.00
2018-09-02T14:10:29.819Z,88.20
2018-09-02T14:12:58.146Z,88.00
2018-09-02T14:15:26.327Z,87.40
2018-09-02T14:17:54.658Z,88.10
2018-09-02T14:20:22.841Z,86.70
2018-09-02T14:22:51.206Z,87.60
2018-09-02T14:25:19.401Z,85.90
2018-09-02T14:27:47.596Z,84.30
2018-09-02T14:30:15.775Z,83.50
2018-09-02T14:32:44.069Z,85.00
2018-09-02T14:35:12.249Z,84.30
2018-09-02T14:37:40.493Z,86.30
2018-09-02T14:40:08.716Z,87.10
2018-09-02T14:42:36.925Z,87.50
2018-09-02T14:45:05.123Z,88.80
2018-09-02T14:47:33.382Z,88.70
2018-09-02T14:50:01.569Z,89.70
2018-09-02T14:52:29.808Z,90.40
2018-09-02T14:54:58.074Z,90.70
2018-09-02T14:57:26.305Z,90.30
2018-09-02T14:59:54.492Z,89.10
2018-09-02T15:02:22.710Z,89.90
2018-09-02T15:04:50.901Z,90.80
2018-09-02T15:07:19.116Z,91.20
2018-09-02T15:09:47.308Z,91.80
2018-09-02T15:12:15.609Z,92.40
2018-09-02T15:14:43.865Z,92.50
2018-09-02T15:17:12.073Z,92.60
2018-09-02T15:19:40.262Z,92.90
2018-09-02T15:22:08.545Z,93.10
2018-09-02T15:24:36.749Z,93.50
2018-09-02T15:27:05.002Z,94.70
2018-09-02T15:29:33.197Z,94.10
2018-09-02T15:32:01.474Z,94.50
2018-09-02T15:34:29.692Z,94.40
2018-09-02T15:36:57.979Z,93.50
2018-09-02T15:39:26.283Z,92.60
2018-09-02T15:41:54.498Z,93.10
2018-09-02T15:44:22.837Z,92.50
2018-09-02T15:46:51.033Z,92.20
2018-09-02T15:49:19.269Z,92.20
2018-09-02T15:51:47.508Z,91.40
2018-09-02T15:54:15.717Z,91.40
2018-09-02T15:56:43.918Z,92.10
2018-09-02T15:59:12.133Z,92.40
2018-09-02T16:01:40.313Z,92.20
2018-09-02T16:04:08.529Z,91.60
2018-09-02T16:06:36.732Z,92.20
2018-09-02T16:09:07.875Z,92.60
2018-09-02T16:11:36.279Z,92.10
2018-09-02T16:14:04.562Z,92.40
2018-09-02T16:16:32.769Z,92.90
2018-09-02T16:19:01.487Z,93.00
2018-09-02T16:21:30.185Z,92.90
2018-09-02T16:23:58.955Z,93.00
2018-09-02T16:26:27.735Z,93.50
2018-09-02T16:28:56.446Z,93.20
2018-09-02T16:31:25.083Z,93.60
2018-09-02T16:33:53.787Z,94.10
2018-09-02T16:36:22.456Z,94.00
2018-09-02T16:38:51.177Z,93.90
2018-09-02T16:41:19.357Z,94.30
2018-09-02T16:43:47.622Z,94.80
2018-09-02T16:46:15.820Z,94.60
2018-09-02T16:48:44.169Z,94.40
2018-09-02T16:51:12.461Z,94.20
2018-09-02T16:53:40.682Z,94.60
2018-09-02T16:56:08.966Z,94.80
2018-09-02T16:58:37.211Z,95.00
2018-09-02T17:01:05.517Z,95.30
2018-09-02T17:03:38.736Z,95.60
2018-09-02T17:06:06.992Z,96.10
2018-09-02T17:08:36.246Z,96.10
2018-09-02T17:11:04.726Z,96.30
2018-09-02T17:13:32.917Z,95.60
2018-09-02T17:16:01.121Z,96.30
2018-09-02T17:18:29.313Z,96.20
2018-09-02T17:20:57.607Z,96.60
2018-09-02T17:23:25.887Z,95.70
2018-09-02T17:25:54.237Z,96.40
2018-09-02T17:28:22.337Z,96.50
2018-09-02T17:30:50.570Z,97.00
2018-09-02T17:33:18.913Z,97.10
2018-09-02T17:35:47.137Z,97.10
2018-09-02T17:38:15.320Z,97.50
2018-09-02T17:40:43.564Z,97.20
2018-09-02T17:43:11.757Z,97.30
2018-09-02T17:45:40.037Z,97.50
2018-09-02T17:48:08.216Z,97.90
2018-09-02T17:50:37.161Z,98.50
2018-09-02T17:53:05.638Z,98.20
2018-09-02T17:55:34.094Z,98.50
2018-09-02T17:58:02.360Z,98.00
2018-09-02T18:00:33.750Z,98.00
2018-09-02T18:03:01.949Z,98.50
2018-09-02T18:05:30.526Z,98.50
2018-09-02T18:07:59.689Z,98.50
2018-09-02T18:10:27.902Z,98.50
2018-09-02T18:12:56.128Z,98.50
2018-09-02T18:15:24.330Z,98.50
2018-09-02T18:17:52.585Z,98.40
2018-09-02T18:20:20.755Z,98.20
2018-09-02T18:22:49.874Z,98.50
2018-09-02T18:25:18.144Z,98.50
2018-09-02T18:27:49.571Z,98.50
2018-09-02T18:30:17.842Z,98.50
2018-09-02T18:32:46.913Z,98.50
2018-09-02T18:35:15.122Z,98.50
2018-09-02T18:37:43.679Z,98.50
2018-09-02T18:40:11.911Z,98.50
2018-09-02T18:42:40.144Z,98.50
2018-09-02T18:45:08.392Z,98.50
2018-09-02T18:47:36.634Z,98.50
2018-09-02T18:50:05.253Z,98.50
2018-09-02T18:52:35.225Z,98.50
2018-09-02T18:55:04.394Z,98.50
2018-09-02T18:57:32.632Z,98.50
2018-09-02T19:00:00.908Z,98.50
2018-09-02T19:02:30.301Z,98.50
2018-09-02T19:04:58.477Z,98.50
2018-09-02T19:07:27.438Z,98.50
2018-09-02T19:09:55.689Z,98.50
2018-09-02T19:12:24.267Z,98.50
2018-09-02T19:14:53.229Z,98.50
2018-09-02T19:17:21.472Z,98.50
2018-09-02T19:19:50.461Z,98.50
2018-09-02T19:22:18.667Z,98.50
2018-09-02T19:24:46.953Z,98.50
2018-09-02T19:27:15.154Z,98.50
2018-09-02T19:29:43.488Z,98.50
2018-09-02T19:32:11.770Z,98.50
2018-09-02T19:34:40.038Z,98.50
2018-09-02T19:37:08.365Z,98.50
2018-09-02T19:39:37.242Z,98.50
2018-09-02T19:42:05.561Z,98.50
2018-09-02T19:44:34.485Z,98.50
2018-09-02T19:47:02.651Z,98.50
2018-09-02T19:49:30.887Z,98.50
2018-09-02T19:51:59.073Z,98.50
2018-09-02T19:54:27.296Z,98.50
2018-09-02T19:56:55.662Z,98.50
2018-09-02T19:59:23.929Z,98.50
2018-09-02T20:01:52.172Z,98.50
2018-09-02T20:04:20.370Z,98.50
2018-09-02T20:06:48.542Z,98.50
2018-09-02T20:09:16.740Z,98.50
2018-09-02T20:11:44.917Z,98.50
2018-09-02T20:14:13.325Z,98.50
2018-09-02T20:16:41.972Z,98.50
2018-09-02T20:19:10.237Z,98.50
2018-09-02T20:21:39.265Z,98.50
2018-09-02T20:24:07.758Z,98.50
2018-09-02T20:26:37.862Z,98.50
2018-09-02T20:29:06.162Z,98.50
2018-09-02T20:31:34.373Z,98.50
2018-09-02T20:34:02.581Z,98.50
2018-09-02T20:36:31.248Z,98.50
2018-09-02T20:38:59.677Z,98.50
2018-09-02T20:41:27.836Z,98.50
2018-09-02T20:43:56.968Z,98.50
2018-09-02T20:46:25.181Z,98.50
2018-09-02T20:48:53.409Z,98.50
2018-09-02T20:51:21.601Z,98.50
2018-09-02T20:53:50.333Z,98.50
2018-09-02T20:56:20.786Z,98.50
2018-09-02T20:58:49.277Z,98.50
2018-09-02T21:01:17.480Z,98.50
2018-09-02T21:03:45.828Z,98.50
2018-09-02T21:06:13.985Z,98.50
2018-09-02T21:08:42.144Z,98.50
2018-09-02T21:11:10.360Z,98.50
2018-09-02T21:13:38.541Z,98.50
2018-09-02T21:16:06.774Z,98.50
2018-09-02T21:18:34.967Z,98.50
2018-09-02T21:21:03.247Z,98.50
2018-09-02T21:23:31.421Z,98.50
2018-09-02T21:25:59.640Z,98.50
2018-09-02T21:28:27.822Z,98.50
2018-09-02T21:30:56.456Z,98.50
2018-09-02T21:33:25.253Z,98.50
2018-09-02T21:35:53.596Z,98.50
2018-09-02T21:38:21.917Z,98.50
2018-09-02T21:40:50.336Z,98.50
2018-09-02T21:43:18.597Z,98.50
2018-09-02T21:45:46.890Z,98.50
2018-09-02T21:48:15.058Z,98.50
2018-09-02T21:50:43.409Z,98.50
2018-09-02T21:53:11.985Z,98.50
2018-09-02T21:55:40.202Z,98.50
2018-09-02T21:58:08.418Z,98.50
2018-09-02T22:00:36.769Z,98.50
2018-09-02T22:03:04.966Z,98.50
2018-09-02T22:05:33.217Z,98.50
2018-09-02T22:08:01.404Z,98.50
2018-09-02T22:10:29.612Z,98.50
2018-09-02T22:12:57.772Z,98.50
2018-09-02T22:15:25.995Z,98.50
2018-09-02T22:17:54.170Z,98.50
2018-09-02T22:20:22.378Z,98.50
2018-09-02T22:22:50.594Z,98.50
2018-09-02T22:25:18.809Z,98.50
2018-09-02T22:27:46.987Z,98.50
2018-09-02T22:30:15.198Z,98.50
2018-09-02T22:32:43.436Z,98.50
2018-09-02T22:35:11.626Z,98.50
2018-09-02T22:37:39.842Z,98.50
2018-09-02T22:40:08.039Z,98.50
2018-09-02T22:42:36.245Z,98.50
2018-09-02T22:45:04.538Z,98.50
2018-09-02T22:47:32.744Z,98.50
2018-09-02T22:50:00.969Z,98.50
2018-09-02T22:52:29.698Z,98.50
2018-09-02T22:54:58.340Z,98.50
2018-09-02T22:57:26.993Z,98.50
2018-09-02T22:59:55.681Z,98.50
2018-09-02T23:02:24.388Z,98.50
2018-09-02T23:04:52.987Z,98.50
2018-09-02T23:07:21.694Z,98.50
2018-09-02T23:09:50.397Z,98.50
2018-09-02T23:12:19.259Z,98.50
2018-09-02T23:14:47.887Z,98.50
2018-09-02T23:17:16.458Z,98.50
2018-09-02T23:19:45.367Z,98.50
2018-09-02T23:22:13.993Z,98.50
2018-09-02T23:24:42.629Z,98.50
2018-09-02T23:27:10.834Z,98.50
2018-09-02T23:29:39.009Z,98.50
2018-09-02T23:32:07.257Z,98.50
2018-09-02T23:34:35.434Z,98.50
2018-09-02T23:37:03.695Z,98.50
2018-09-02T23:39:31.869Z,98.50
2018-09-02T23:42:00.093Z,98.50
2018-09-02T23:44:28.294Z,98.50
2018-09-02T23:46:56.548Z,98.50
2018-09-02T23:49:24.717Z,98.50
2018-09-02T23:51:52.929Z,98.50
2018-09-02T23:54:21.201Z,98.50
2018-09-02T23:56:49.377Z,98.50
2018-09-02T23:59:17.585Z,98.50
